Time;durP1;ratioP1;P1;durP2;ratioP2;P2;SDS_P1;SDS_P2;PMS_P1;PMS_P2;Temp;Humidity;BMP_temperature;BMP_pressure;BME280_temperature;BME280_humidity;BME280_pressure;Samples;Min_cycle;Max_cycle;Signal;HPM_P1;HPM_P2
2021/12/07 00:00:26;;;;;;;93.73;46.10;;;;;;;;;;5078501;28;20460;-72
2021/12/07 00:02:54;;;;;;;109.47;51.00;;;;;;;;;;5079948;28;20454;-72
2021/12/07 00:05:23;;;;;;;96.23;47.60;;;;;;;;;;5079668;28;20448;-71
2021/12/07 00:07:56;;;;;;;120.83;53.13;;;;;;;;;;5080567;28;20524;-72
2021/12/07 00:10:26;;;;;;;110.40;52.50;;;;;;;;;;5081531;28;20525;-72
2021/12/07 00:12:56;;;;;;;109.40;53.27;;;;;;;;;;5081183;28;20461;-72
2021/12/07 00:15:24;;;;;;;106.20;52.27;;;;;;;;;;5079528;28;20594;-71
2021/12/07 00:17:54;;;;;;;89.20;47.70;;;;;;;;;;5080161;28;20860;-71
2021/12/07 00:20:23;;;;;;;101.90;49.77;;;;;;;;;;5079481;28;20524;-72
2021/12/07 00:22:59;;;;;;;110.50;51.73;;;;;;;;;;5078790;28;20528;-73
2021/12/07 00:25:28;;;;;;;87.73;45.90;;;;;;;;;;5079612;28;20940;-73
2021/12/07 00:27:56;;;;;;;98.77;51.03;;;;;;;;;;5078997;28;20433;-72
2021/12/07 00:30:30;;;;;;;121.33;53.10;;;;;;;;;;5078085;28;20484;-72
2021/12/07 00:33:10;;;;;;;97.43;49.30;;;;;;;;;;5079054;28;20441;-72
2021/12/07 00:35:38;;;;;;;105.67;51.00;;;;;;;;;;5079177;28;20588;-72
2021/12/07 00:38:09;;;;;;;93.13;46.47;;;;;;;;;;5078418;28;20981;-72
2021/12/07 00:40:39;;;;;;;106.05;49.90;;;;;;;;;;5078766;28;20467;-72
2021/12/07 00:43:09;;;;;;;117.23;52.93;;;;;;;;;;5077679;28;20194;-72
2021/12/07 00:45:39;;;;;;;96.90;49.60;;;;;;;;;;5076839;28;20448;-73
2021/12/07 00:48:09;;;;;;;108.77;51.83;;;;;;;;;;5076723;28;20202;-72
2021/12/07 00:50:46;;;;;;;101.03;49.33;;;;;;;;;;5077504;28;20779;-72
2021/12/07 00:53:18;;;;;;;85.37;43.43;;;;;;;;;;5077647;28;20452;-72
2021/12/07 00:55:49;;;;;;;110.33;53.00;;;;;;;;;;5077879;28;20519;-72
2021/12/07 00:58:22;;;;;;;128.93;55.37;;;;;;;;;;5077234;28;20772;-72
2021/12/07 01:01:08;;;;;;;99.50;53.70;;;;;;;;;;5077442;28;20456;-70
2021/12/07 01:03:37;;;;;;;88.13;45.33;;;;;;;;;;5076740;28;21085;-70
2021/12/07 01:06:20;;;;;;;76.03;45.53;;;;;;;;;;5077634;28;20449;-72
2021/12/07 01:08:59;;;;;;;87.03;45.43;;;;;;;;;;5077440;28;20527;-72
2021/12/07 01:25:22;;;;;;;74.00;41.50;;;;;;;;;;5077404;28;20432;-72
2021/12/07 01:27:56;;;;;;;77.77;45.87;;;;;;;;;;5077611;28;20825;-72
2021/12/07 01:30:37;;;;;;;86.60;43.50;;;;;;;;;;5078264;28;20455;-72
2021/12/07 01:33:22;;;;;;;94.47;48.70;;;;;;;;;;5076697;28;20932;-72
2021/12/07 01:36:13;;;;;;;71.23;40.27;;;;;;;;;;5076863;28;20476;-72
2021/12/07 01:41:45;;;;;;;85.27;43.97;;;;;;;;;;5076610;28;20255;-72
2021/12/07 01:44:40;;;;;;;89.93;47.73;;;;;;;;;;5076839;28;20456;-73
2021/12/07 01:50:22;;;;;;;110.43;50.03;;;;;;;;;;5073158;28;20432;-71
2021/12/07 02:01:08;;;;;;;102.80;49.58;;;;;;;;;;5080530;28;20919;-72
2021/12/07 02:03:38;;;;;;;100.00;48.30;;;;;;;;;;5080869;28;20266;-72
2021/12/07 02:06:12;;;;;;;100.10;50.43;;;;;;;;;;5080731;28;20725;-72
2021/12/07 02:08:40;;;;;;;92.73;48.30;;;;;;;;;;5080892;28;20448;-72
2021/12/07 02:11:08;;;;;;;94.37;49.00;;;;;;;;;;5080533;28;20461;-72
2021/12/07 02:16:26;;;;;;;98.80;49.20;;;;;;;;;;5079926;28;20530;-72
2021/12/07 02:18:54;;;;;;;97.73;51.03;;;;;;;;;;5080316;28;20255;-73
2021/12/07 02:21:28;;;;;;;97.60;48.53;;;;;;;;;;5080506;28;20514;-72
2021/12/07 02:23:56;;;;;;;104.27;50.63;;;;;;;;;;5080418;28;20267;-73
2021/12/07 02:26:24;;;;;;;132.37;54.07;;;;;;;;;;5079624;28;20436;-72
2021/12/07 02:28:53;;;;;;;110.50;50.28;;;;;;;;;;5079775;28;20449;-73
2021/12/07 02:31:22;;;;;;;100.45;47.40;;;;;;;;;;5080133;28;20202;-72
2021/12/07 02:33:51;;;;;;;100.83;48.30;;;;;;;;;;5079697;28;20443;-73
2021/12/07 02:36:19;;;;;;;110.50;49.97;;;;;;;;;;5079672;28;20491;-73
2021/12/07 02:38:53;;;;;;;121.23;53.03;;;;;;;;;;5079679;28;20506;-72
2021/12/07 02:41:29;;;;;;;122.57;54.10;;;;;;;;;;5080275;28;20529;-72
2021/12/07 02:44:01;;;;;;;132.20;54.67;;;;;;;;;;5079482;28;20202;-72
2021/12/07 02:46:32;;;;;;;131.40;57.73;;;;;;;;;;5079667;28;20263;-72
2021/12/07 02:49:00;;;;;;;118.50;51.93;;;;;;;;;;5079824;28;20721;-72
2021/12/07 02:51:28;;;;;;;99.70;49.87;;;;;;;;;;5079986;28;20513;-72
2021/12/07 02:53:58;;;;;;;92.40;45.67;;;;;;;;;;5079948;28;20464;-72
2021/12/07 02:56:27;;;;;;;88.83;44.40;;;;;;;;;;5079740;28;20499;-72
2021/12/07 02:59:00;;;;;;;102.30;48.00;;;;;;;;;;5080050;28;20491;-72
2021/12/07 03:01:32;;;;;;;97.18;49.55;;;;;;;;;;5079529;28;20460;-72
2021/12/07 03:04:08;;;;;;;96.83;47.13;;;;;;;;;;5081580;28;20217;-73
2021/12/07 03:06:51;;;;;;;111.80;51.47;;;;;;;;;;5079149;28;20485;-72
2021/12/07 03:09:49;;;;;;;104.28;48.45;;;;;;;;;;5080097;28;20456;-72
2021/12/07 03:26:07;;;;;;;115.13;53.30;;;;;;;;;;5079662;28;20225;-72
2021/12/07 03:28:37;;;;;;;120.47;53.92;;;;;;;;;;5080144;28;20283;-72
2021/12/07 03:31:05;;;;;;;110.90;50.30;;;;;;;;;;5078938;28;20590;-72
2021/12/07 03:33:36;;;;;;;120.05;53.78;;;;;;;;;;5079691;28;20479;-72
2021/12/07 03:36:06;;;;;;;127.00;53.93;;;;;;;;;;5079012;28;20230;-73
2021/12/07 03:38:34;;;;;;;118.78;51.80;;;;;;;;;;5079212;28;20482;-72
2021/12/07 03:41:02;;;;;;;98.65;47.03;;;;;;;;;;5079760;28;20206;-73
2021/12/07 03:43:32;;;;;;;98.85;49.30;;;;;;;;;;5078682;28;20194;-72
2021/12/07 03:46:00;;;;;;;100.55;48.80;;;;;;;;;;5079698;28;20210;-72
2021/12/07 03:48:31;;;;;;;102.10;50.42;;;;;;;;;;5079103;28;20556;-72
2021/12/07 03:50:59;;;;;;;123.70;58.05;;;;;;;;;;5079065;28;20300;-72
2021/12/07 03:53:28;;;;;;;106.00;49.07;;;;;;;;;;5079074;28;20202;-72
2021/12/07 03:55:56;;;;;;;106.57;49.10;;;;;;;;;;5079160;28;20534;-72
2021/12/07 03:58:24;;;;;;;118.22;53.22;;;;;;;;;;5078740;28;20460;-72
2021/12/07 04:00:54;;;;;;;102.90;51.23;;;;;;;;;;5078261;28;20393;-73
2021/12/07 04:03:22;;;;;;;100.43;50.00;;;;;;;;;;5078480;28;20531;-72
2021/12/07 04:05:54;;;;;;;112.40;53.67;;;;;;;;;;5077850;28;20449;-72
2021/12/07 04:08:24;;;;;;;119.37;53.80;;;;;;;;;;5078268;28;20523;-72
2021/12/07 04:10:52;;;;;;;110.60;53.58;;;;;;;;;;5078333;28;20470;-72
2021/12/07 04:13:21;;;;;;;109.07;49.70;;;;;;;;;;5078219;28;20256;-72
2021/12/07 04:15:49;;;;;;;99.47;49.63;;;;;;;;;;5077670;28;20488;-72
2021/12/07 04:18:18;;;;;;;99.60;48.58;;;;;;;;;;5077867;28;20557;-72
2021/12/07 04:20:47;;;;;;;100.43;50.17;;;;;;;;;;5077790;28;20399;-72
2021/12/07 04:23:15;;;;;;;127.63;54.55;;;;;;;;;;5078056;28;20456;-72
2021/12/07 04:25:43;;;;;;;110.33;51.10;;;;;;;;;;5077796;28;20198;-72
2021/12/07 04:28:12;;;;;;;120.17;53.97;;;;;;;;;;5077465;28;20456;-72
2021/12/07 04:33:32;;;;;;;91.40;49.33;;;;;;;;;;5076839;28;20845;-72
2021/12/07 04:36:00;;;;;;;91.78;48.83;;;;;;;;;;5077072;28;20519;-72
2021/12/07 04:38:30;;;;;;;97.33;48.17;;;;;;;;;;5063907;28;20282;-73
2021/12/07 04:40:58;;;;;;;103.40;49.80;;;;;;;;;;5057401;28;20464;-72
2021/12/07 04:43:28;;;;;;;106.20;52.77;;;;;;;;;;5074093;28;20852;-72
2021/12/07 04:46:06;;;;;;;103.30;50.83;;;;;;;;;;5077609;28;20841;-72
2021/12/07 04:59:41;;;;;;;124.32;53.88;;;;;;;;;;5076568;28;20516;-72
2021/12/07 05:02:09;;;;;;;132.98;55.22;;;;;;;;;;5076943;28;20203;-72
2021/12/07 05:04:39;;;;;;;128.15;54.05;;;;;;;;;;5076324;28;20202;-72
2021/12/07 05:07:13;;;;;;;111.80;51.63;;;;;;;;;;5075567;28;20234;-72
2021/12/07 05:10:10;;;;;;;119.03;50.77;;;;;;;;;;5076464;28;20460;-72
2021/12/07 05:12:57;;;;;;;133.67;55.80;;;;;;;;;;5076220;28;20724;-72
2021/12/07 05:15:32;;;;;;;136.23;53.87;;;;;;;;;;5076586;28;20888;-72
2021/12/07 05:18:22;;;;;;;110.43;51.67;;;;;;;;;;5076639;28;20476;-72
2021/12/07 05:23:58;;;;;;;119.03;52.20;;;;;;;;;;5076123;28;20481;-73
2021/12/07 05:37:46;;;;;;;106.60;51.15;;;;;;;;;;5063824;28;20905;-73
2021/12/07 05:40:16;;;;;;;110.50;52.10;;;;;;;;;;5056279;28;20230;-72
2021/12/07 05:42:44;;;;;;;121.45;54.13;;;;;;;;;;5057533;28;20461;-72
2021/12/07 05:45:21;;;;;;;113.60;50.67;;;;;;;;;;5076223;28;20279;-73
2021/12/07 05:47:49;;;;;;;122.83;52.30;;;;;;;;;;5076348;28;20267;-72
2021/12/07 05:50:19;;;;;;;131.47;55.37;;;;;;;;;;5075359;28;20445;-73
2021/12/07 05:52:56;;;;;;;116.40;50.50;;;;;;;;;;5075706;28;20464;-72
2021/12/07 05:55:25;;;;;;;100.55;49.22;;;;;;;;;;5075810;28;20448;-73
2021/12/07 05:57:55;;;;;;;98.43;50.80;;;;;;;;;;5075439;28;20194;-72
2021/12/07 06:00:26;;;;;;;94.27;48.67;;;;;;;;;;5074522;28;20456;-72
2021/12/07 06:03:02;;;;;;;96.40;48.77;;;;;;;;;;5075003;28;20488;-73
2021/12/07 06:05:31;;;;;;;104.20;50.57;;;;;;;;;;5074469;28;20451;-72
2021/12/07 06:08:05;;;;;;;98.07;47.75;;;;;;;;;;5074889;28;20494;-72
2021/12/07 06:10:35;;;;;;;94.20;48.70;;;;;;;;;;5073303;28;20202;-72
2021/12/07 06:13:03;;;;;;;100.87;47.73;;;;;;;;;;5074876;28;20453;-72
2021/12/07 06:15:34;;;;;;;102.00;49.83;;;;;;;;;;5073498;28;20441;-73
2021/12/07 06:18:12;;;;;;;114.17;50.70;;;;;;;;;;5074906;28;20555;-71
2021/12/07 06:20:44;;;;;;;101.83;44.13;;;;;;;;;;5074915;28;20463;-72
2021/12/07 06:23:15;;;;;;;97.57;51.23;;;;;;;;;;5073253;28;20503;-72
2021/12/07 06:25:44;;;;;;;111.07;50.60;;;;;;;;;;5074495;28;20487;-72
2021/12/07 06:28:12;;;;;;;97.37;47.07;;;;;;;;;;5073778;28;20472;-72
2021/12/07 06:30:40;;;;;;;82.73;45.53;;;;;;;;;;5072711;28;20837;-72
2021/12/07 06:33:08;;;;;;;86.17;48.73;;;;;;;;;;5071069;28;20965;-72
2021/12/07 06:35:39;;;;;;;95.60;51.87;;;;;;;;;;5071823;28;20543;-73
2021/12/07 06:38:22;;;;;;;81.27;44.43;;;;;;;;;;5072601;28;20904;-72
2021/12/07 06:40:53;;;;;;;92.40;47.70;;;;;;;;;;5072660;28;20537;-72
2021/12/07 06:43:22;;;;;;;101.77;50.43;;;;;;;;;;5065349;28;20462;-72
2021/12/07 06:45:50;;;;;;;105.77;50.47;;;;;;;;;;5076890;28;21079;-72
2021/12/07 06:48:18;;;;;;;134.80;55.07;;;;;;;;;;5077332;28;20834;-72
2021/12/07 06:50:46;;;;;;;144.30;57.67;;;;;;;;;;5075092;28;20448;-72
2021/12/07 06:53:14;;;;;;;131.77;52.63;;;;;;;;;;5056885;28;20249;-72
2021/12/07 06:55:43;;;;;;;127.87;53.67;;;;;;;;;;5058483;28;20203;-72
2021/12/07 06:58:17;;;;;;;134.80;53.17;;;;;;;;;;5056927;28;20729;-73
2021/12/07 07:00:46;;;;;;;92.57;45.17;;;;;;;;;;5055614;28;20461;-72
2021/12/07 07:03:16;;;;;;;113.23;51.70;;;;;;;;;;5056273;28;20717;-72
2021/12/07 07:05:45;;;;;;;137.47;54.80;;;;;;;;;;5056760;28;20467;-72
2021/12/07 07:08:13;;;;;;;141.00;57.30;;;;;;;;;;5056301;28;20461;-73
2021/12/07 07:10:41;;;;;;;106.60;52.90;;;;;;;;;;5055312;28;20547;-73
2021/12/07 07:13:09;;;;;;;109.87;53.23;;;;;;;;;;5054738;28;20458;-73
2021/12/07 07:15:39;;;;;;;109.23;50.57;;;;;;;;;;5055512;28;20485;-73
2021/12/07 07:18:07;;;;;;;142.13;57.50;;;;;;;;;;5055097;28;20759;-73
2021/12/07 07:20:35;;;;;;;136.60;59.23;;;;;;;;;;5053959;28;21082;-72
2021/12/07 07:23:03;;;;;;;124.37;50.13;;;;;;;;;;5054981;28;20457;-72
2021/12/07 07:25:55;;;;;;;133.60;57.73;;;;;;;;;;5056381;28;20460;-73
2021/12/07 07:28:26;;;;;;;97.13;51.13;;;;;;;;;;5046571;28;20461;-72
2021/12/07 07:30:56;;;;;;;91.53;49.10;;;;;;;;;;5075909;28;20447;-72
2021/12/07 07:33:25;;;;;;;85.27;48.20;;;;;;;;;;5078123;28;20535;-73
2021/12/07 07:35:53;;;;;;;91.13;48.97;;;;;;;;;;5076312;28;20511;-73
2021/12/07 07:38:31;;;;;;;78.83;43.63;;;;;;;;;;5075706;28;20444;-73
2021/12/07 07:41:09;;;;;;;84.47;47.20;;;;;;;;;;5077168;28;20481;-73
2021/12/07 07:43:40;;;;;;;88.50;46.90;;;;;;;;;;5078364;28;20683;-73
2021/12/07 07:46:10;;;;;;;93.37;47.13;;;;;;;;;;5076087;28;20440;-73
2021/12/07 07:48:38;;;;;;;71.60;44.10;;;;;;;;;;5077844;28;20448;-72
2021/12/07 07:51:07;;;;;;;67.00;42.50;;;;;;;;;;5077925;28;20494;-73
2021/12/07 07:53:36;;;;;;;71.00;43.33;;;;;;;;;;5082884;28;20441;-72
2021/12/07 07:56:10;;;;;;;81.20;49.70;;;;;;;;;;5096174;28;20558;-72
2021/12/07 07:58:40;;;;;;;72.50;45.20;;;;;;;;;;5098388;28;20905;-73
2021/12/07 08:01:12;;;;;;;77.77;47.77;;;;;;;;;;5097429;28;20531;-72
2021/12/07 08:03:41;;;;;;;76.33;48.90;;;;;;;;;;5096484;28;20444;-73
2021/12/07 08:06:09;;;;;;;80.97;49.20;;;;;;;;;;5084595;28;20813;-72
2021/12/07 08:08:37;;;;;;;75.73;48.53;;;;;;;;;;5064710;28;20904;-72
2021/12/07 08:11:11;;;;;;;87.07;51.30;;;;;;;;;;5063945;28;20502;-73
2021/12/07 08:13:41;;;;;;;80.67;49.70;;;;;;;;;;5075645;28;20449;-73
2021/12/07 08:16:15;;;;;;;84.57;51.30;;;;;;;;;;5071259;28;20453;-73
2021/12/07 08:21:29;;;;;;;70.03;47.93;;;;;;;;;;5050486;28;20469;-72
2021/12/07 08:23:58;;;;;;;65.67;47.60;;;;;;;;;;5054885;28;20450;-72
2021/12/07 08:26:27;;;;;;;70.20;45.47;;;;;;;;;;5058947;28;20905;-72
2021/12/07 08:29:14;;;;;;;63.10;45.33;;;;;;;;;;5072522;28;20441;-72
2021/12/07 08:34:56;;;;;;;74.53;49.80;;;;;;;;;;5055400;28;20456;-73
2021/12/07 08:37:28;;;;;;;85.57;51.67;;;;;;;;;;5067753;28;20586;-73
2021/12/07 08:39:57;;;;;;;74.47;46.10;;;;;;;;;;5071673;28;20453;-73
2021/12/07 08:42:43;;;;;;;80.40;53.10;;;;;;;;;;5065307;28;20701;-73
2021/12/07 08:45:15;;;;;;;86.73;53.30;;;;;;;;;;5058221;28;20477;-73
2021/12/07 08:47:44;;;;;;;77.30;49.90;;;;;;;;;;5066733;28;20444;-73
2021/12/07 08:50:25;;;;;;;82.93;53.77;;;;;;;;;;5068352;28;20465;-73
2021/12/07 08:53:02;;;;;;;77.17;48.80;;;;;;;;;;5077848;28;20476;-73
2021/12/07 09:01:16;;;;;;;80.67;49.30;;;;;;;;;;5056563;28;20433;-73
2021/12/07 09:03:49;;;;;;;88.07;46.73;;;;;;;;;;5069760;28;20519;-73
2021/12/07 09:06:19;;;;;;;71.20;46.43;;;;;;;;;;5056195;28;20940;-72
2021/12/07 09:08:49;;;;;;;82.83;49.43;;;;;;;;;;5071884;28;20507;-73
2021/12/07 09:11:20;;;;;;;76.53;47.27;;;;;;;;;;5077815;28;20448;-72
2021/12/07 09:13:53;;;;;;;87.00;49.80;;;;;;;;;;5077627;28;20461;-73
2021/12/07 09:16:22;;;;;;;74.90;46.23;;;;;;;;;;5077095;28;20448;-72
2021/12/07 09:18:50;;;;;;;76.87;48.90;;;;;;;;;;5058673;28;20648;-72
2021/12/07 09:21:20;;;;;;;69.07;46.27;;;;;;;;;;5059895;28;20450;-73
2021/12/07 09:23:48;;;;;;;69.57;45.67;;;;;;;;;;5057361;28;20453;-73
2021/12/07 09:26:17;;;;;;;81.63;53.73;;;;;;;;;;5066505;28;20467;-73
2021/12/07 09:28:46;;;;;;;82.67;51.13;;;;;;;;;;5069099;28;20551;-73
2021/12/07 09:31:17;;;;;;;79.63;45.37;;;;;;;;;;5077620;28;20778;-73
2021/12/07 09:33:46;;;;;;;85.90;46.63;;;;;;;;;;5077049;28;20495;-72
2021/12/07 09:36:18;;;;;;;81.00;49.50;;;;;;;;;;5073659;28;20927;-72
2021/12/07 09:38:48;;;;;;;79.53;47.80;;;;;;;;;;5071326;28;20508;-73
2021/12/07 09:41:33;;;;;;;100.53;53.50;;;;;;;;;;5057568;28;20947;-73
2021/12/07 09:44:16;;;;;;;77.73;47.30;;;;;;;;;;5057164;28;20495;-72
2021/12/07 09:46:49;;;;;;;94.03;55.03;;;;;;;;;;5058131;28;20523;-72
2021/12/07 09:49:32;;;;;;;64.57;44.30;;;;;;;;;;5057138;28;20853;-72
2021/12/07 09:52:01;;;;;;;63.60;41.80;;;;;;;;;;5066892;28;20518;-73
2021/12/07 09:54:32;;;;;;;76.77;47.00;;;;;;;;;;5076466;28;20991;-72
2021/12/07 09:57:04;;;;;;;79.37;48.73;;;;;;;;;;5075138;28;20526;-72
2021/12/07 09:59:33;;;;;;;77.97;51.80;;;;;;;;;;5070368;28;20441;-72
2021/12/07 10:02:06;;;;;;;67.37;45.27;;;;;;;;;;5066493;28;20453;-73
2021/12/07 10:04:34;;;;;;;82.57;51.70;;;;;;;;;;5056075;28;20747;-72
2021/12/07 10:07:03;;;;;;;74.67;48.80;;;;;;;;;;5055776;28;20484;-72
2021/12/07 10:09:37;;;;;;;70.07;45.23;;;;;;;;;;5054070;28;20454;-72
2021/12/07 10:12:30;;;;;;;78.50;48.57;;;;;;;;;;5055576;28;20468;-72
2021/12/07 10:15:08;;;;;;;97.77;53.73;;;;;;;;;;5057839;28;20842;-73
2021/12/07 10:17:38;;;;;;;97.83;54.40;;;;;;;;;;5058590;28;20971;-73
2021/12/07 10:20:21;;;;;;;138.40;64.30;;;;;;;;;;5057894;28;20445;-71
2021/12/07 10:22:56;;;;;;;131.80;59.87;;;;;;;;;;5063868;28;20448;-70
2021/12/07 10:25:32;;;;;;;143.90;62.70;;;;;;;;;;5071532;28;20451;-71
2021/12/07 10:28:05;;;;;;;118.30;51.40;;;;;;;;;;5080578;28;20439;-71
2021/12/07 10:30:36;;;;;;;129.27;59.80;;;;;;;;;;5080582;28;20453;-71
2021/12/07 10:33:08;;;;;;;98.20;51.00;;;;;;;;;;5079170;28;20512;-72
2021/12/07 10:35:42;;;;;;;118.90;56.03;;;;;;;;;;5078703;28;20463;-70
2021/12/07 10:41:24;;;;;;;150.50;61.87;;;;;;;;;;5063869;28;20445;-72
2021/12/07 10:44:02;;;;;;;115.77;54.73;;;;;;;;;;5082683;28;20452;-72
2021/12/07 10:46:52;;;;;;;127.57;58.00;;;;;;;;;;5060550;28;20487;-73
2021/12/07 10:49:29;;;;;;;107.70;59.90;;;;;;;;;;5057800;28;20480;-72
2021/12/07 10:52:28;;;;;;;119.70;58.43;;;;;;;;;;5058287;28;20448;-73
2021/12/07 10:54:58;;;;;;;132.93;64.27;;;;;;;;;;5054278;28;20457;-72
2021/12/07 11:03:25;;;;;;;134.63;60.20;;;;;;;;;;5054499;28;20461;-73
2021/12/07 11:06:07;;;;;;;132.87;60.07;;;;;;;;;;5066822;28;20452;-73
2021/12/07 11:08:41;;;;;;;123.73;59.97;;;;;;;;;;5058462;28;20527;-73
2021/12/07 11:11:13;;;;;;;108.93;55.30;;;;;;;;;;5059992;28;20532;-73
2021/12/07 11:13:54;;;;;;;172.20;67.70;;;;;;;;;;5069479;28;20430;-73
2021/12/07 11:16:25;;;;;;;130.83;58.10;;;;;;;;;;5058451;28;20445;-73
2021/12/07 11:18:55;;;;;;;164.13;69.45;;;;;;;;;;5057516;28;20481;-71
2021/12/07 11:21:31;;;;;;;139.03;62.43;;;;;;;;;;5060248;28;20561;-72
2021/12/07 11:24:01;;;;;;;139.33;65.73;;;;;;;;;;5076739;28;20447;-72
2021/12/07 11:32:09;;;;;;;133.43;60.10;;;;;;;;;;5066080;28;20417;-73
2021/12/07 11:34:40;;;;;;;122.53;58.87;;;;;;;;;;5064811;28;20480;-73
2021/12/07 11:37:11;;;;;;;107.60;55.37;;;;;;;;;;5066382;28;20429;-72
2021/12/07 11:39:54;;;;;;;103.17;53.60;;;;;;;;;;5073001;28;20445;-71
2021/12/07 11:42:32;;;;;;;106.60;56.20;;;;;;;;;;5057964;28;20854;-72
2021/12/07 11:45:02;;;;;;;121.77;55.83;;;;;;;;;;5058203;28;20792;-73
2021/12/07 11:47:33;;;;;;;124.13;57.87;;;;;;;;;;5062917;28;20697;-73
2021/12/07 11:50:11;;;;;;;118.50;57.97;;;;;;;;;;5057262;28;20467;-73
2021/12/07 11:52:43;;;;;;;118.00;59.27;;;;;;;;;;5070139;28;20449;-73
2021/12/07 11:55:15;;;;;;;158.83;66.23;;;;;;;;;;5064578;28;20539;-73
2021/12/07 11:57:46;;;;;;;166.90;66.87;;;;;;;;;;5057391;28;20473;-73
2021/12/07 12:00:20;;;;;;;159.83;65.90;;;;;;;;;;5069713;28;20479;-72
2021/12/07 12:03:02;;;;;;;163.70;68.93;;;;;;;;;;5066450;28;21086;-71
2021/12/07 12:09:11;;;;;;;104.67;53.57;;;;;;;;;;4979363;28;20452;-70
2021/12/07 12:11:46;;;;;;;108.40;55.30;;;;;;;;;;4968092;28;20501;-73
2021/12/07 12:14:26;;;;;;;109.53;59.30;;;;;;;;;;4979090;28;20476;-72
2021/12/07 12:16:58;;;;;;;115.47;56.70;;;;;;;;;;5033069;28;20546;-72
2021/12/07 12:19:49;;;;;;;;;;;;;;;;;;;;;
2021/12/07 12:22:26;;;;;;;108.53;60.47;;;;;;;;;;5045078;28;20469;-73
2021/12/07 12:24:56;;;;;;;98.10;55.43;;;;;;;;;;5054727;28;20520;-72
2021/12/07 12:27:30;;;;;;;106.03;54.87;;;;;;;;;;5056552;28;20461;-72
2021/12/07 12:30:05;;;;;;;106.93;57.83;;;;;;;;;;5057081;28;20492;-71
2021/12/07 12:32:36;;;;;;;130.23;58.77;;;;;;;;;;5056598;28;20461;-72
2021/12/07 12:35:26;;;;;;;115.63;61.53;;;;;;;;;;5071569;28;20763;-71
2021/12/07 12:37:57;;;;;;;109.53;56.37;;;;;;;;;;5062306;28;20536;-71
2021/12/07 12:40:28;;;;;;;122.10;69.50;;;;;;;;;;5057312;28;20457;-71
2021/12/07 12:42:58;;;;;;;122.00;57.70;;;;;;;;;;5056242;28;20464;-71
2021/12/07 12:45:37;;;;;;;122.20;61.17;;;;;;;;;;5055938;28;20489;-71
2021/12/07 12:48:08;;;;;;;112.13;57.47;;;;;;;;;;5063852;28;20448;-74
2021/12/07 12:50:40;;;;;;;134.27;61.53;;;;;;;;;;5055682;28;20489;-71
2021/12/07 12:53:36;;;;;;;180.90;68.47;;;;;;;;;;5071716;28;20468;-71
2021/12/07 12:56:10;;;;;;;159.03;64.47;;;;;;;;;;5060220;28;20456;-72
2021/12/07 12:58:42;;;;;;;161.97;65.80;;;;;;;;;;5062614;28;20530;-72
2021/12/07 13:01:23;;;;;;;160.53;67.43;;;;;;;;;;5053954;28;20743;-72
2021/12/07 13:04:01;;;;;;;123.03;63.67;;;;;;;;;;5054675;28;20460;-72
2021/12/07 13:06:50;;;;;;;121.83;60.77;;;;;;;;;;5056226;28;20457;-72
2021/12/07 13:09:30;;;;;;;115.47;55.80;;;;;;;;;;5073246;28;20443;-72
2021/12/07 13:12:00;;;;;;;127.13;61.90;;;;;;;;;;5054166;28;20465;-72
2021/12/07 13:14:39;;;;;;;121.17;58.27;;;;;;;;;;5055054;28;20482;-72
2021/12/07 13:17:19;;;;;;;105.47;57.53;;;;;;;;;;5059823;28;21144;-73
2021/12/07 13:20:18;;;;;;;140.50;63.07;;;;;;;;;;5057298;28;20739;-73
2021/12/07 13:22:48;;;;;;;192.50;72.10;;;;;;;;;;5074792;28;20555;-72
2021/12/07 13:25:18;;;;;;;136.83;61.93;;;;;;;;;;5069908;28;20505;-73
2021/12/07 13:28:21;;;;;;;129.17;64.00;;;;;;;;;;5054569;28;20453;-73
2021/12/07 13:31:01;;;;;;;120.33;58.50;;;;;;;;;;5054722;28;20544;-73
2021/12/07 13:33:38;;;;;;;178.60;67.90;;;;;;;;;;5074802;28;20436;-72
2021/12/07 13:36:27;;;;;;;120.07;57.57;;;;;;;;;;5074785;28;20444;-72
2021/12/07 13:38:57;;;;;;;203.67;77.40;;;;;;;;;;5074176;28;20893;-73
2021/12/07 13:41:25;;;;;;;133.77;62.00;;;;;;;;;;5055216;28;20453;-72
2021/12/07 13:43:53;;;;;;;131.33;65.20;;;;;;;;;;5054517;28;20449;-72
2021/12/07 13:46:30;;;;;;;110.90;54.87;;;;;;;;;;5056380;28;20554;-71
2021/12/07 13:49:09;;;;;;;109.50;54.83;;;;;;;;;;5055763;28;20450;-73
2021/12/07 13:51:37;;;;;;;110.93;59.30;;;;;;;;;;5056886;28;20808;-72
2021/12/07 13:54:34;;;;;;;119.83;60.77;;;;;;;;;;5056329;28;20500;-72
2021/12/07 13:57:16;;;;;;;110.33;57.57;;;;;;;;;;5036903;28;20908;-71
2021/12/07 14:03:07;;;;;;;117.57;57.40;;;;;;;;;;5019491;28;20473;-72
2021/12/07 14:05:40;;;;;;;114.83;58.03;;;;;;;;;;5064337;28;20456;-71
2021/12/07 14:08:08;;;;;;;118.03;60.17;;;;;;;;;;5060431;28;20488;-73
2021/12/07 14:10:37;;;;;;;120.03;61.20;;;;;;;;;;5053637;28;20471;-72
2021/12/07 14:13:07;;;;;;;125.90;63.10;;;;;;;;;;5057421;28;20468;-73
2021/12/07 14:15:50;;;;;;;130.17;60.77;;;;;;;;;;5054874;28;20462;-73
2021/12/07 14:18:59;;;;;;;151.30;64.43;;;;;;;;;;5054274;28;20489;-72
2021/12/07 14:21:30;;;;;;;158.43;64.00;;;;;;;;;;5055485;28;20477;-72
2021/12/07 14:24:15;;;;;;;184.65;68.82;;;;;;;;;;5054036;28;20943;-72
2021/12/07 14:26:46;;;;;;;176.23;66.73;;;;;;;;;;5052547;28;20663;-72
2021/12/07 14:29:18;;;;;;;119.70;60.20;;;;;;;;;;5058164;28;20496;-71
2021/12/07 14:31:48;;;;;;;126.33;61.53;;;;;;;;;;5053672;28;20882;-73
2021/12/07 14:34:22;;;;;;;113.20;59.60;;;;;;;;;;5051672;28;20526;-73
2021/12/07 14:36:51;;;;;;;110.63;57.10;;;;;;;;;;5053010;28;20441;-73
2021/12/07 14:39:21;;;;;;;99.83;51.50;;;;;;;;;;5052295;28;20562;-73
2021/12/07 14:41:49;;;;;;;143.80;61.60;;;;;;;;;;5052011;28;20857;-73
2021/12/07 14:44:18;;;;;;;172.20;68.77;;;;;;;;;;5052113;28;20528;-73
2021/12/07 14:46:47;;;;;;;151.63;64.43;;;;;;;;;;5048623;28;20825;-73
2021/12/07 14:49:15;;;;;;;169.07;65.60;;;;;;;;;;5052962;28;20200;-72
2021/12/07 14:51:45;;;;;;;119.87;58.90;;;;;;;;;;5051844;28;20514;-73
2021/12/07 14:54:17;;;;;;;165.87;67.30;;;;;;;;;;5061981;28;20725;-73
2021/12/07 14:56:45;;;;;;;184.43;67.10;;;;;;;;;;5071182;28;20456;-73
2021/12/07 14:59:17;;;;;;;122.50;55.67;;;;;;;;;;5062971;28;20487;-73
2021/12/07 15:01:46;;;;;;;118.50;57.90;;;;;;;;;;5053275;28;20901;-73
2021/12/07 15:04:15;;;;;;;130.63;60.23;;;;;;;;;;5052798;28;20556;-73
2021/12/07 15:06:46;;;;;;;119.13;56.53;;;;;;;;;;5053712;28;20473;-73
2021/12/07 15:09:20;;;;;;;123.43;58.50;;;;;;;;;;5056669;28;20500;-73
2021/12/07 15:11:56;;;;;;;119.53;57.57;;;;;;;;;;5054757;28;20445;-74
2021/12/07 15:14:33;;;;;;;114.60;53.47;;;;;;;;;;5057621;28;20533;-73
2021/12/07 15:17:11;;;;;;;109.53;57.23;;;;;;;;;;5062177;28;20471;-73
2021/12/07 15:19:44;;;;;;;126.60;62.67;;;;;;;;;;5054913;28;20726;-72
2021/12/07 15:22:16;;;;;;;99.67;58.47;;;;;;;;;;5053056;28;20461;-72
2021/12/07 15:24:49;;;;;;;115.77;57.80;;;;;;;;;;5055120;28;20658;-72
2021/12/07 15:27:24;;;;;;;120.63;60.37;;;;;;;;;;5056867;28;20825;-73
2021/12/07 15:30:10;;;;;;;121.70;62.53;;;;;;;;;;5069890;28;20554;-73
2021/12/07 15:32:41;;;;;;;109.77;55.60;;;;;;;;;;5075958;28;20493;-72
2021/12/07 15:35:09;;;;;;;108.10;54.57;;;;;;;;;;5076029;28;20527;-72
2021/12/07 15:37:51;;;;;;;111.70;57.07;;;;;;;;;;5077369;28;20436;-71
2021/12/07 15:40:25;;;;;;;110.20;55.10;;;;;;;;;;5076382;28;20488;-73
2021/12/07 15:42:53;;;;;;;104.97;52.63;;;;;;;;;;5075173;28;20525;-73
2021/12/07 15:45:24;;;;;;;98.00;59.90;;;;;;;;;;5074374;28;20444;-72
2021/12/07 15:47:57;;;;;;;111.67;56.20;;;;;;;;;;5073912;28;21081;-71
2021/12/07 15:50:35;;;;;;;118.30;64.07;;;;;;;;;;5063165;28;21042;-73
2021/12/07 15:53:08;;;;;;;102.37;54.07;;;;;;;;;;5056445;28;20452;-72
2021/12/07 15:55:37;;;;;;;110.03;62.53;;;;;;;;;;5055719;28;20481;-72
2021/12/07 15:58:10;;;;;;;100.57;52.77;;;;;;;;;;5069565;28;20487;-72
2021/12/07 16:00:40;;;;;;;104.53;57.07;;;;;;;;;;5056587;28;20481;-72
2021/12/07 16:06:17;;;;;;;92.50;56.60;;;;;;;;;;5062683;28;20586;-72
2021/12/07 16:08:46;;;;;;;91.50;55.00;;;;;;;;;;5059650;28;20492;-72
2021/12/07 16:11:15;;;;;;;103.47;53.70;;;;;;;;;;5055746;28;20471;-72
2021/12/07 16:13:46;;;;;;;96.83;55.97;;;;;;;;;;5056393;28;20743;-71
2021/12/07 16:16:19;;;;;;;106.87;61.17;;;;;;;;;;5055659;28;20746;-72
2021/12/07 16:18:47;;;;;;;96.70;51.60;;;;;;;;;;5054330;28;20488;-72
2021/12/07 16:21:16;;;;;;;100.63;55.10;;;;;;;;;;5055122;28;20449;-72
2021/12/07 16:23:52;;;;;;;100.90;53.43;;;;;;;;;;5058075;28;20465;-72
2021/12/07 16:26:23;;;;;;;95.40;55.77;;;;;;;;;;5074857;28;20489;-72
2021/12/07 16:28:52;;;;;;;100.07;54.83;;;;;;;;;;5057221;28;20529;-71
2021/12/07 16:31:57;;;;;;;86.00;50.00;;;;;;;;;;5064390;28;20460;-73